Time;durP1;ratioP1;P1;durP2;ratioP2;P2;SDS_P1;SDS_P2;PMS_P1;PMS_P2;Temp;Humidity;BMP_temperature;BMP_pressure;BME280_temperature;BME280_humidity;BME280_pressure;Samples;Min_cycle;Max_cycle;Signal;HPM_P1;HPM_P2
2024/03/19 02:38:29;;;;;;;;;;;;;;;;;;;;;
2024/03/19 04:50:51;;;;;;;10.63;9.53;;;;;;;11.05;100.00;95989.53;6047632;23;20520;-89
2024/03/19 04:57:24;;;;;;;;;;;;;;;;;;;;;
2024/03/19 05:42:07;;;;;;;12.40;7.60;;;;;;;11.15;100.00;96016.88;6196314;23;20255;-85
2024/03/19 05:56:50;;;;;;;11.17;10.07;;;;;;;11.39;98.24;95921.31;6097498;23;20239;-89
2024/03/19 05:59:52;;;;;;;10.83;9.70;;;;;;;11.38;98.39;95924.88;6092095;23;20179;-90
2024/03/19 06:02:19;;;;;;;9.77;8.77;;;;;;;11.35;98.67;95932.97;5974456;24;20210;-90
2024/03/19 06:20:01;;;;;;;10.77;9.03;;;;;;;11.29;100.00;95988.59;5933831;23;20181;-91
2024/03/19 06:23:24;;;;;;;;;;;;;;;;;;;;;
2024/03/19 06:42:50;;;;;;;13.00;11.17;;;;;;;11.11;100.00;96044.75;5917024;23;20179;-89
2024/03/19 07:22:00;;;;;;;16.10;13.43;;;;;;;11.15;100.00;96086.47;5890555;24;20207;-89
2024/03/19 07:58:45;;;;;;;14.50;12.87;;;;;;;11.38;100.00;96076.97;5917496;23;20701;-89
2024/03/19 09:35:00;;;;;;;8.47;7.63;;;;;;;13.44;79.35;95726.47;5863380;24;20226;-89
2024/03/19 09:44:18;;;;;;;8.02;7.32;;;;;;;14.59;72.55;95544.31;5845356;24;20173;-90
2024/03/19 09:47:30;;;;;;;7.90;7.18;;;;;;;14.37;73.02;95551.47;5892020;24;20164;-90
2024/03/19 09:57:09;;;;;;;7.18;6.45;;;;;;;14.70;71.04;95522.94;5891342;24;20344;-88
2024/03/19 10:37:31;;;;;;;8.60;7.70;;;;;;;15.84;72.82;95595.72;5917045;24;20196;-88
2024/03/19 10:55:58;;;;;;;;;;;;;;;;;;;;;
2024/03/19 10:58:35;;;;;;;7.43;6.57;;;;;;;17.07;63.50;95220.56;6187964;23;20181;-88
2024/03/19 11:15:17;;;;;;;7.75;6.95;;;;;;;16.14;62.69;95167.38;5978648;23;20193;-87
2024/03/19 11:17:46;;;;;;;37.22;9.07;;;;;;;16.36;62.27;95161.63;6030991;23;20206;-86
2024/03/19 11:20:16;;;;;;;58.97;11.32;;;;;;;16.29;62.92;95192.94;6217368;23;20237;-86
2024/03/19 11:22:53;;;;;;;61.22;11.48;;;;;;;16.13;63.43;95217.72;6216462;23;20173;-86
2024/03/19 11:25:21;;;;;;;238.65;25.40;;;;;;;16.09;64.03;95252.13;6217909;23;20818;-86
2024/03/19 11:27:51;;;;;;;191.32;21.45;;;;;;;16.23;64.12;95259.53;6218207;23;20236;-86
2024/03/19 11:30:19;;;;;;;133.52;15.52;;;;;;;16.61;63.63;95236.84;6214982;23;20173;-84
2024/03/19 11:32:48;;;;;;;166.68;16.35;;;;;;;16.97;63.25;95246.34;6215282;23;20209;-85
2024/03/19 11:35:22;;;;;;;11.13;6.03;;;;;;;17.27;60.62;95115.13;6214542;23;20213;-87
2024/03/19 11:38:03;;;;;;;6.05;5.25;;;;;;;17.44;59.50;95052.75;6213011;23;20248;-87
2024/03/19 11:40:30;;;;;;;5.63;5.05;;;;;;;17.27;56.40;94849.75;6213350;23;20244;-86
2024/03/19 11:43:00;;;;;;;6.32;5.63;;;;;;;17.29;56.39;94839.09;6211480;23;20185;-86
2024/03/19 11:45:26;;;;;;;5.07;4.57;;;;;;;17.39;56.31;94794.22;6212024;23;20174;-86
2024/03/19 11:47:53;;;;;;;4.82;4.32;;;;;;;17.53;54.78;94688.75;6211901;23;20649;-87
2024/03/19 11:50:25;;;;;;;5.32;4.50;;;;;;;17.68;55.25;94735.06;6210426;23;20493;-87
2024/03/19 11:52:51;;;;;;;5.00;4.50;;;;;;;17.85;52.91;94575.13;6211293;23;20812;-87
2024/03/19 11:55:21;;;;;;;4.40;4.00;;;;;;;17.88;53.86;94662.41;6210833;23;20618;-84
2024/03/19 11:57:49;;;;;;;6.15;5.00;;;;;;;17.85;54.91;94705.31;6211257;23;20859;-86
2024/03/19 12:00:17;;;;;;;5.75;5.25;;;;;;;17.83;54.86;94737.84;6212260;23;20174;-84
2024/03/19 12:02:47;;;;;;;5.72;5.07;;;;;;;17.66;56.37;94812.63;6214221;23;20177;-84
2024/03/19 12:05:15;;;;;;;48.10;43.60;;;;;;;17.31;55.47;94737.41;6213174;23;20177;-84
2024/03/19 12:07:50;;;;;;;9.02;8.23;;;;;;;17.19;53.98;94695.84;6213122;23;20326;-85
2024/03/19 12:10:22;;;;;;;5.47;4.97;;;;;;;17.07;54.36;94721.19;6212883;23;20819;-86
2024/03/19 12:12:49;;;;;;;5.40;5.00;;;;;;;17.17;54.03;94710.91;6214623;23;20220;-84
2024/03/19 12:15:16;;;;;;;7.13;4.47;;;;;;;17.36;54.54;94748.63;6212176;23;20200;-84
2024/03/19 12:17:46;;;;;;;5.28;4.50;;;;;;;17.44;54.21;94711.81;6211933;23;20184;-85
2024/03/19 12:20:16;;;;;;;5.40;4.57;;;;;;;17.40;54.66;94765.34;6212160;23;20692;-82
2024/03/19 12:22:47;;;;;;;5.63;5.05;;;;;;;17.32;52.41;94590.66;6211390;23;20212;-85
2024/03/19 12:25:17;;;;;;;4.97;4.57;;;;;;;17.49;51.67;94560.16;6211965;23;20193;-86
2024/03/19 12:27:44;;;;;;;5.03;4.63;;;;;;;17.60;51.83;94556.63;6211669;23;20174;-85
2024/03/19 12:30:17;;;;;;;4.38;3.85;;;;;;;17.98;52.88;94664.31;6211474;23;20174;-85
2024/03/19 12:32:59;;;;;;;4.60;4.20;;;;;;;18.06;52.70;94650.84;6212574;23;20158;-85
2024/03/19 12:35:26;;;;;;;5.65;4.60;;;;;;;18.19;51.15;94535.81;6210234;23;20160;-86
2024/03/19 12:37:53;;;;;;;5.05;4.65;;;;;;;18.34;51.09;94559.38;6211158;23;20224;-85
2024/03/19 12:40:22;;;;;;;5.13;4.60;;;;;;;18.54;50.39;94558.72;6210614;23;20625;-84
2024/03/19 12:42:50;;;;;;;4.60;4.20;;;;;;;18.47;49.25;94512.03;6211342;23;20261;-84
2024/03/19 12:45:19;;;;;;;6.30;3.95;;;;;;;18.51;48.86;94513.09;6211714;23;20652;-85
2024/03/19 12:47:46;;;;;;;4.47;4.07;;;;;;;18.69;50.31;94595.34;6211368;23;20700;-84
2024/03/19 12:50:13;;;;;;;4.07;3.65;;;;;;;18.96;50.27;94622.16;6213510;23;20277;-85
2024/03/19 12:52:40;;;;;;;4.40;4.00;;;;;;;19.02;48.02;94494.34;6213449;23;20173;-83
2024/03/19 12:55:08;;;;;;;13.10;11.88;;;;;;;18.68;47.66;94458.19;6211908;23;20209;-84
2024/03/19 12:57:38;;;;;;;5.00;4.60;;;;;;;18.46;46.80;94403.63;6212365;23;20626;-82
2024/03/19 13:00:08;;;;;;;4.57;4.18;;;;;;;18.38;47.33;94419.72;6213517;23;20589;-85
2024/03/19 13:02:35;;;;;;;4.70;3.60;;;;;;;18.63;48.53;94523.38;6213614;23;20244;-83
2024/03/19 13:05:03;;;;;;;6.78;3.67;;;;;;;18.43;48.98;94529.22;6213902;23;20176;-85
2024/03/19 13:07:29;;;;;;;3.72;3.40;;;;;;;18.27;49.58;94577.84;6213150;23;20181;-85
2024/03/19 13:09:56;;;;;;;3.90;3.60;;;;;;;18.14;50.33;94621.75;6211944;23;20181;-86
2024/03/19 13:12:22;;;;;;;3.85;3.55;;;;;;;17.97;51.14;94654.91;6211649;23;20193;-85
2024/03/19 13:14:51;;;;;;;5.50;3.25;;;;;;;17.75;51.26;94673.16;6212060;23;20202;-85
2024/03/19 13:17:17;;;;;;;4.43;3.65;;;;;;;17.52;50.48;94617.69;6212309;23;20239;-85
2024/03/19 13:19:44;;;;;;;4.13;3.65;;;;;;;17.39;50.15;94612.06;6211753;23;20676;-85
2024/03/19 13:22:11;;;;;;;5.47;3.50;;;;;;;17.23;49.39;94548.66;6212128;23;20205;-86
2024/03/19 13:24:37;;;;;;;5.10;3.97;;;;;;;16.99;49.83;94571.53;6213179;23;20185;-84
2024/03/19 13:27:04;;;;;;;7.05;6.45;;;;;;;16.98;49.88;94576.97;6212654;23;20688;-84
2024/03/19 13:29:30;;;;;;;4.38;3.65;;;;;;;17.26;49.96;94576.81;6212318;23;20178;-84
2024/03/19 13:31:58;;;;;;;3.42;3.00;;;;;;;17.51;50.64;94623.91;6212521;23;20201;-85
2024/03/19 13:34:27;;;;;;;4.88;3.53;;;;;;;17.82;49.85;94603.47;6210637;23;20204;-85
2024/03/19 13:36:56;;;;;;;3.65;3.33;;;;;;;18.07;49.37;94576.88;6211860;23;20177;-84
2024/03/19 13:39:23;;;;;;;3.75;2.42;;;;;;;18.06;47.54;94429.44;6211877;23;20195;-86
2024/03/19 13:41:52;;;;;;;2.65;2.15;;;;;;;18.21;46.62;94413.91;6211730;23;20263;-86
2024/03/19 13:44:19;;;;;;;2.50;2.30;;;;;;;18.33;44.71;94293.81;6211637;23;20683;-84
2024/03/19 13:46:45;;;;;;;2.63;2.15;;;;;;;18.46;44.82;94285.53;6213317;23;20185;-85
2024/03/19 13:49:28;;;;;;;2.00;1.90;;;;;;;18.56;44.07;94251.66;6213816;23;20185;-86
2024/03/19 13:51:55;;;;;;;12.40;3.33;;;;;;;18.71;43.48;94198.78;6213597;23;20276;-84
2024/03/19 13:54:21;;;;;;;2.88;2.25;;;;;;;18.61;41.80;94100.50;6213268;23;20533;-87
2024/03/19 13:56:49;;;;;;;2.15;2.00;;;;;;;18.64;43.62;94225.13;6213989;23;20184;-84
2024/03/19 13:59:16;;;;;;;2.38;2.17;;;;;;;18.67;44.78;94289.75;6213669;23;20173;-85
2024/03/19 14:01:43;;;;;;;20.75;18.65;;;;;;;18.79;45.14;94333.88;6213357;23;20197;-84
2024/03/19 14:04:09;;;;;;;10.48;9.40;;;;;;;18.89;45.31;94352.91;6214499;23;20173;-86
2024/03/19 14:06:38;;;;;;;4.00;3.08;;;;;;;18.96;45.49;94356.06;6214464;23;20174;-86
2024/03/19 14:09:05;;;;;;;3.28;1.88;;;;;;;18.94;44.24;94292.94;6214851;23;20177;-83
2024/03/19 14:11:32;;;;;;;1.77;1.67;;;;;;;18.87;43.05;94185.47;6213451;23;20197;-86
2024/03/19 14:13:59;;;;;;;1.80;1.70;;;;;;;18.76;43.14;94219.66;6213812;23;20235;-85
2024/03/19 14:16:25;;;;;;;2.75;2.55;;;;;;;18.73;42.94;94191.47;6212894;23;20174;-84
2024/03/19 14:18:52;;;;;;;6.40;5.80;;;;;;;18.71;43.13;94209.22;6215332;23;20184;-83
2024/03/19 14:21:18;;;;;;;4.03;3.65;;;;;;;18.74;42.74;94206.88;6215281;23;20537;-85
2024/03/19 14:23:46;;;;;;;2.53;1.90;;;;;;;18.69;43.28;94232.16;6213732;23;20185;-85
2024/03/19 14:26:12;;;;;;;2.78;1.92;;;;;;;18.61;43.68;94270.75;6213630;23;20177;-84
2024/03/19 14:28:39;;;;;;;3.45;2.33;;;;;;;18.70;44.66;94336.19;6213812;23;20235;-84
2024/03/19 14:31:05;;;;;;;5.40;2.28;;;;;;;18.65;44.49;94338.00;6213166;23;20189;-84
2024/03/19 14:33:34;;;;;;;7.95;2.33;;;;;;;18.76;44.73;94371.66;6212122;23;20177;-86
2024/03/19 14:36:01;;;;;;;2.63;1.98;;;;;;;18.85;44.80;94379.78;6213521;23;20176;-84
2024/03/19 14:38:27;;;;;;;2.53;1.40;;;;;;;18.88;44.03;94322.66;6212854;23;20189;-85
2024/03/19 14:40:55;;;;;;;1.50;1.40;;;;;;;18.67;41.61;94174.25;6214467;23;20200;-85
2024/03/19 14:43:22;;;;;;;2.15;1.25;;;;;;;18.58;41.90;94174.78;6213086;23;20181;-86
2024/03/19 14:45:48;;;;;;;1.67;1.50;;;;;;;18.46;42.28;94195.09;6212945;23;20176;-85
2024/03/19 14:48:14;;;;;;;2.08;1.88;;;;;;;18.50;41.62;94169.28;6211492;23;20177;-86
2024/03/19 14:50:41;;;;;;;1.42;1.20;;;;;;;18.44;41.51;94145.06;6212741;23;20220;-85
2024/03/19 14:53:07;;;;;;;1.42;1.33;;;;;;;18.39;41.79;94163.28;6211617;23;20176;-84
2024/03/19 14:55:34;;;;;;;4.75;1.38;;;;;;;18.44;43.25;94256.34;6212434;23;20200;-86
2024/03/19 14:58:02;;;;;;;2.17;1.40;;;;;;;18.35;42.91;94240.41;6212175;23;20174;-87
2024/03/19 15:00:28;;;;;;;3.10;1.75;;;;;;;18.44;44.03;94308.47;6213054;23;20184;-85
2024/03/19 15:02:55;;;;;;;1.95;1.80;;;;;;;18.50;44.58;94370.75;6212386;23;20208;-86
2024/03/19 15:05:22;;;;;;;1.92;1.80;;;;;;;18.53;44.84;94378.06;6181758;23;20154;-86
2024/03/19 15:07:49;;;;;;;3.28;2.00;;;;;;;18.54;44.68;94384.88;6181809;23;20185;-83
2024/03/19 15:10:16;;;;;;;2.25;2.10;;;;;;;18.43;44.28;94346.78;6182529;23;21015;-83
2024/03/19 15:12:43;;;;;;;2.58;2.20;;;;;;;18.40;45.05;94364.75;6184084;23;20178;-85
2024/03/19 15:15:11;;;;;;;3.42;2.17;;;;;;;18.36;44.66;94374.09;6184564;23;20194;-84
2024/03/19 15:17:38;;;;;;;2.25;1.90;;;;;;;18.25;45.09;94422.78;6183949;23;20213;-85
2024/03/19 15:20:12;;;;;;;2.75;2.10;;;;;;;18.21;45.90;94447.78;6184008;23;20182;-86
2024/03/19 15:22:41;;;;;;;3.53;2.10;;;;;;;18.19;46.22;94470.69;6183373;23;20630;-85
2024/03/19 15:25:07;;;;;;;2.40;2.20;;;;;;;17.98;45.84;94433.28;6183420;23;20178;-86
2024/03/19 15:27:34;;;;;;;3.15;2.17;;;;;;;17.81;45.49;94414.44;6182485;23;20181;-84
2024/03/19 15:30:01;;;;;;;3.50;2.08;;;;;;;17.83;45.85;94439.19;6181743;23;20180;-86
2024/03/19 15:32:29;;;;;;;3.05;1.92;;;;;;;17.76;46.34;94466.44;6182224;23;20202;-85
2024/03/19 15:34:55;;;;;;;2.42;2.20;;;;;;;17.79;45.95;94460.75;6180859;23;20190;-85
2024/03/19 15:37:21;;;;;;;3.72;2.00;;;;;;;17.83;45.74;94441.78;6181544;23;20177;-83
2024/03/19 15:39:48;;;;;;;2.25;1.80;;;;;;;17.82;45.92;94427.19;6181529;23;20488;-85
2024/03/19 15:42:14;;;;;;;2.00;1.80;;;;;;;17.78;46.14;94446.16;6183297;23;20205;-86
2024/03/19 15:44:41;;;;;;;2.45;2.08;;;;;;;17.74;45.65;94438.06;6183408;23;20174;-85
2024/03/19 15:47:07;;;;;;;2.40;2.00;;;;;;;17.58;45.57;94431.91;6183905;23;20249;-87
2024/03/19 15:49:35;;;;;;;2.00;1.77;;;;;;;17.56;46.13;94467.03;6184179;23;20174;-83
2024/03/19 15:52:02;;;;;;;2.53;2.08;;;;;;;17.47;45.35;94419.88;6184215;23;20209;-84
2024/03/19 15:54:28;;;;;;;1.75;1.65;;;;;;;17.42;46.29;94458.06;6184504;23;20201;-84
2024/03/19 15:56:54;;;;;;;2.20;2.00;;;;;;;17.40;46.57;94478.34;6185460;23;20185;-85
2024/03/19 15:59:21;;;;;;;2.83;2.28;;;;;;;17.38;46.51;94483.00;6184157;23;20639;-84
2024/03/19 16:01:50;;;;;;;2.85;1.65;;;;;;;17.34;46.41;94476.69;6184446;23;20198;-85
2024/03/19 16:04:17;;;;;;;2.10;1.67;;;;;;;17.25;46.32;94471.16;6183716;23;20233;-85
2024/03/19 16:06:46;;;;;;;2.38;1.50;;;;;;;17.25;46.82;94491.97;6184885;23;20174;-86
2024/03/19 16:09:13;;;;;;;2.28;1.80;;;;;;;17.25;46.90;94494.59;6184382;23;20174;-85
2024/03/19 16:11:39;;;;;;;3.65;1.90;;;;;;;17.25;46.53;94489.38;6184397;23;20202;-85
2024/03/19 16:14:06;;;;;;;1.88;1.70;;;;;;;17.24;46.62;94500.81;6184212;23;20181;-87
2024/03/19 16:16:33;;;;;;;1.70;1.60;;;;;;;17.25;46.69;94505.00;6184675;23;20182;-84
2024/03/19 16:19:00;;;;;;;2.97;1.52;;;;;;;17.23;46.93;94517.44;6184474;23;20237;-86
2024/03/19 16:21:26;;;;;;;1.55;1.45;;;;;;;17.16;46.83;94511.63;6184308;23;20703;-86
2024/03/19 16:23:54;;;;;;;2.25;1.60;;;;;;;17.08;46.87;94515.47;6183746;23;20171;-84
2024/03/19 16:26:20;;;;;;;3.22;1.60;;;;;;;16.94;47.12;94542.84;6184257;23;20781;-86
2024/03/19 16:28:47;;;;;;;1.80;1.60;;;;;;;16.81;47.51;94554.38;6178093;23;20178;-83
2024/03/19 16:31:14;;;;;;;1.77;1.67;;;;;;;16.73;47.51;94552.22;6177118;23;20256;-85
2024/03/19 16:33:40;;;;;;;1.92;1.70;;;;;;;16.59;47.29;94543.91;6176943;23;20181;-86
2024/03/19 16:36:08;;;;;;;2.55;1.80;;;;;;;16.57;47.58;94560.78;6178304;23;20210;-84
2024/03/19 16:38:36;;;;;;;1.88;1.75;;;;;;;16.40;47.55;94562.59;6178104;23;20178;-85
2024/03/19 16:41:04;;;;;;;1.58;1.33;;;;;;;16.37;48.02;94600.22;6180635;23;20237;-86
2024/03/19 16:43:33;;;;;;;1.83;1.58;;;;;;;16.35;48.44;94622.31;6182329;23;20174;-86
2024/03/19 16:46:00;;;;;;;3.10;1.48;;;;;;;16.33;48.72;94643.31;6182271;23;20810;-86
2024/03/19 16:48:28;;;;;;;1.70;1.60;;;;;;;16.21;48.21;94616.59;6182242;23;20232;-87
2024/03/19 16:50:55;;;;;;;1.92;1.75;;;;;;;16.04;48.57;94631.38;6182004;23;20194;-85
2024/03/19 16:53:25;;;;;;;1.70;1.60;;;;;;;15.88;48.84;94648.50;6182272;23;20178;-85
2024/03/19 16:55:51;;;;;;;2.55;2.20;;;;;;;15.69;49.69;94693.81;6151614;23;20523;-84
2024/03/19 16:58:19;;;;;;;2.97;2.63;;;;;;;15.50;50.64;94745.03;6151450;23;20650;-84
2024/03/19 17:00:45;;;;;;;3.63;3.30;;;;;;;15.32;50.87;94771.88;6151977;23;20563;-84
2024/03/19 17:03:13;;;;;;;3.75;2.88;;;;;;;15.29;51.87;94820.81;6153262;23;20174;-86
2024/03/19 17:05:43;;;;;;;2.88;2.67;;;;;;;15.29;52.28;94846.75;6153057;23;20194;-85
2024/03/19 17:08:10;;;;;;;5.57;2.80;;;;;;;15.29;52.51;94865.69;6154143;23;20183;-84
2024/03/19 17:10:36;;;;;;;4.00;3.30;;;;;;;15.23;52.84;94878.75;6152980;23;20207;-86
2024/03/19 17:13:03;;;;;;;5.88;3.10;;;;;;;15.17;52.54;94868.28;6152948;23;20183;-86
2024/03/19 17:15:31;;;;;;;4.25;3.13;;;;;;;15.15;52.47;94869.50;6139073;23;20199;-84
2024/03/19 17:17:59;;;;;;;3.67;3.38;;;;;;;15.10;53.16;94901.28;6147627;23;20179;-85
2024/03/19 17:20:26;;;;;;;4.82;3.60;;;;;;;15.05;53.29;94928.88;6149153;23;20179;-84
2024/03/19 17:22:53;;;;;;;4.75;3.60;;;;;;;14.98;53.69;94936.75;6150887;23;20190;-86
2024/03/19 17:25:20;;;;;;;4.72;3.33;;;;;;;14.97;53.74;94952.53;6151188;23;20174;-85
2024/03/19 17:27:46;;;;;;;4.20;3.80;;;;;;;14.83;53.17;94913.78;6151628;23;20175;-86
2024/03/19 17:30:15;;;;;;;5.03;4.20;;;;;;;14.81;53.69;94938.38;6151294;23;20182;-84
2024/03/19 17:32:43;;;;;;;4.03;3.55;;;;;;;14.75;53.54;94931.47;6151756;23;20191;-84
2024/03/19 17:35:13;;;;;;;4.40;4.00;;;;;;;14.62;53.92;94929.03;6151355;23;20199;-85
2024/03/19 17:37:40;;;;;;;11.05;9.45;;;;;;;14.55;54.46;94957.59;6152185;23;20517;-84
2024/03/19 17:40:13;;;;;;;4.97;4.47;;;;;;;14.48;54.06;94955.06;6151773;23;20539;-86
2024/03/19 17:42:42;;;;;;;4.80;4.15;;;;;;;14.36;54.77;94979.28;6152232;23;20171;-85
2024/03/19 17:45:10;;;;;;;5.07;4.18;;;;;;;14.34;55.05;94989.84;6152764;23;20180;-85
2024/03/19 17:47:37;;;;;;;5.60;3.95;;;;;;;14.35;55.06;95001.00;6152925;23;20185;-83
2024/03/19 17:50:06;;;;;;;5.22;4.30;;;;;;;14.39;55.13;95008.13;6151159;23;20511;-85
2024/03/19 17:52:33;;;;;;;7.20;5.68;;;;;;;14.39;55.28;95018.50;6152550;23;20199;-84
2024/03/19 17:55:14;;;;;;;6.75;4.78;;;;;;;14.35;55.51;95032.88;6173601;23;20194;-84
2024/03/19 17:58:07;;;;;;;4.40;4.00;;;;;;;14.32;55.23;95022.16;6183653;23;20162;-87
2024/03/19 18:00:49;;;;;;;5.35;4.57;;;;;;;14.29;55.22;95027.75;6182258;23;20194;-87
2024/03/19 18:03:35;;;;;;;4.95;3.90;;;;;;;14.14;55.62;95033.25;6183884;23;20190;-88
2024/03/19 18:09:57;;;;;;;5.28;4.32;;;;;;;14.12;55.93;95064.53;6157592;23;20185;-88
2024/03/19 18:12:37;;;;;;;6.25;4.63;;;;;;;14.12;56.07;95061.94;6182289;23;20249;-85
2024/03/19 18:15:26;;;;;;;5.32;4.10;;;;;;;14.11;56.29;95082.84;6182393;23;20190;-87
2024/03/19 18:18:14;;;;;;;5.82;3.78;;;;;;;14.09;56.48;95096.00;6182801;23;20226;-88
2024/03/19 18:24:10;;;;;;;4.28;3.88;;;;;;;14.15;56.58;95112.50;6091640;23;20231;-86
2024/03/19 18:27:04;;;;;;;;;;;;;;;;;;;;;
2024/03/19 18:30:34;;;;;;;7.38;5.47;;;;;;;14.21;56.67;95123.84;6183822;23;20261;-88
2024/03/19 18:40:28;;;;;;;5.03;3.83;;;;;;;13.96;56.16;95087.56;6126741;23;20225;-85
2024/03/19 18:47:05;;;;;;;3.30;3.00;;;;;;;13.83;56.74;95116.91;6180700;23;20174;-88
2024/03/19 18:50:04;;;;;;;4.30;3.17;;;;;;;13.75;56.86;95117.94;6183605;23;20186;-87
2024/03/19 18:55:54;;;;;;;3.97;3.30;;;;;;;13.67;56.67;95117.34;6173743;23;20258;-89
2024/03/19 18:58:42;;;;;;;3.38;2.90;;;;;;;13.71;56.62;95119.34;6183582;23;20177;-86
2024/03/19 19:01:51;;;;;;;4.60;2.90;;;;;;;13.69;56.88;95133.47;6183462;23;20202;-87
2024/03/19 19:08:01;;;;;;;3.88;3.00;;;;;;;13.55;57.32;95144.88;6131508;23;20177;-86
2024/03/19 19:10:46;;;;;;;4.05;3.50;;;;;;;13.54;57.48;95161.41;6182486;23;20174;-88
2024/03/19 19:14:01;;;;;;;4.47;3.63;;;;;;;13.46;57.72;95168.41;6182318;23;20200;-83
2024/03/19 19:20:02;;;;;;;3.97;3.53;;;;;;;13.26;58.64;95226.34;6163847;23;20177;-87
2024/03/19 19:22:41;;;;;;;5.20;3.97;;;;;;;13.29;58.86;95242.22;6172411;23;20905;-88
2024/03/19 19:25:10;;;;;;;4.70;3.73;;;;;;;13.41;58.58;95247.59;6184775;23;20226;-89
2024/03/19 19:27:58;;;;;;;4.80;4.30;;;;;;;13.45;58.64;95241.03;6185074;23;20173;-88
2024/03/19 19:31:00;;;;;;;4.40;3.60;;;;;;;13.34;58.91;95255.34;6186280;23;20162;-88
2024/03/19 19:34:14;;;;;;;4.07;3.67;;;;;;;13.36;59.26;95266.28;6186196;23;20230;-86
2024/03/19 19:37:15;;;;;;;;;;;;;;;;;;;;;
2024/03/19 19:42:54;;;;;;;4.28;3.88;;;;;;;13.26;59.87;95285.81;6167157;23;20221;-89
2024/03/19 19:45:40;;;;;;;4.22;3.83;;;;;;;13.26;60.12;95288.38;6186566;23;20174;-87
2024/03/19 19:48:07;;;;;;;6.03;5.10;;;;;;;13.30;59.96;95292.16;6186390;23;20458;-89
2024/03/19 19:51:07;;;;;;;4.50;4.10;;;;;;;13.30;60.06;95299.91;6185117;23;20174;-89
2024/03/19 19:54:20;;;;;;;4.07;3.67;;;;;;;13.25;60.28;95308.28;6186622;23;20165;-88
2024/03/19 19:57:31;;;;;;;4.68;3.60;;;;;;;13.14;60.66;95321.75;6175696;23;20217;-86
2024/03/19 20:00:22;;;;;;;4.80;3.60;;;;;;;13.04;61.13;95344.63;6185515;23;20169;-88
2024/03/19 20:03:03;;;;;;;5.65;3.90;;;;;;;12.95;61.49;95344.00;6185369;23;20162;-88
2024/03/19 20:05:53;;;;;;;4.65;3.60;;;;;;;12.91;61.95;95360.09;6185822;23;20166;-87
2024/03/19 20:08:43;;;;;;;4.47;3.70;;;;;;;12.76;62.35;95375.75;6186138;23;20174;-87
2024/03/19 20:12:14;;;;;;;8.18;5.78;;;;;;;12.74;62.86;95406.16;6183414;23;20194;-87
2024/03/19 20:15:47;;;;;;;4.80;4.03;;;;;;;12.74;63.15;95406.97;6185269;23;20190;-89
2024/03/19 20:30:52;;;;;;;5.27;4.63;;;;;;;12.66;63.46;95412.31;5975076;23;20206;-88
2024/03/19 20:33:59;;;;;;;4.87;4.47;;;;;;;12.66;63.77;95417.47;6088046;23;20231;-88
2024/03/19 20:37:16;;;;;;;4.43;4.00;;;;;;;12.59;63.99;95426.97;6094216;23;20627;-87
2024/03/19 20:40:00;;;;;;;5.33;4.80;;;;;;;12.46;64.34;95437.25;6093990;23;20255;-86
2024/03/19 20:42:39;;;;;;;4.80;4.30;;;;;;;12.52;64.27;95427.94;6094739;23;20200;-88
2024/03/19 20:45:12;;;;;;;5.03;4.53;;;;;;;12.40;64.80;95435.44;6127937;23;20176;-88
2024/03/19 20:47:49;;;;;;;7.57;4.40;;;;;;;12.49;64.23;95421.38;6187237;23;20618;-85
2024/03/19 20:50:19;;;;;;;6.37;4.80;;;;;;;12.41;64.45;95432.66;6188332;23;20228;-89
2024/03/19 20:52:54;;;;;;;5.00;4.47;;;;;;;12.47;64.17;95422.56;6187273;23;20161;-86
2024/03/19 20:55:41;;;;;;;5.43;4.33;;;;;;;12.50;64.04;95419.59;6187405;23;20665;-88
2024/03/19 20:58:27;;;;;;;5.47;4.17;;;;;;;12.54;64.03;95411.25;6188023;23;20174;-87
2024/03/19 21:01:35;;;;;;;;;;;;;;;;;;;;;
2024/03/19 21:23:56;;;;;;;5.57;5.07;;;;;;;12.34;64.62;95420.69;6181577;23;20185;-87
2024/03/19 21:26:39;;;;;;;4.80;4.40;;;;;;;12.31;64.32;95406.41;6181864;23;20471;-85
2024/03/19 21:32:42;;;;;;;5.07;4.57;;;;;;;12.30;64.53;95415.13;6086824;23;20252;-86
2024/03/19 21:42:23;;;;;;;5.70;4.97;;;;;;;12.34;64.21;95408.59;6114945;23;20242;-86
2024/03/19 21:45:30;;;;;;;4.97;4.50;;;;;;;12.27;64.70;95425.03;6181697;23;20653;-87
2024/03/19 21:57:56;;;;;;;5.07;4.57;;;;;;;11.97;66.56;95486.38;6030541;23;20504;-88
2024/03/19 22:05:59;;;;;;;5.83;4.40;;;;;;;11.85;66.59;95483.53;6151150;23;20671;-86
2024/03/19 22:09:04;;;;;;;5.50;4.70;;;;;;;11.82;66.58;95498.56;6151808;23;20175;-87
2024/03/19 22:12:20;;;;;;;5.13;4.63;;;;;;;11.85;66.68;95500.78;6131166;23;20223;-85
2024/03/19 22:18:24;;;;;;;4.80;4.27;;;;;;;12.04;66.11;95477.72;6082250;23;20203;-87
2024/03/19 22:20:52;;;;;;;5.50;4.80;;;;;;;12.14;65.99;95471.41;5918173;24;20195;-87
2024/03/19 22:23:56;;;;;;;;;;;;;;;;;;;;;
2024/03/19 22:29:41;;;;;;;5.43;4.80;;;;;;;12.19;64.98;95420.03;6051068;23;20175;-86
2024/03/19 22:35:29;;;;;;;10.13;5.37;;;;;;;12.04;65.37;95436.41;6059852;23;20230;-87
2024/03/19 22:38:37;;;;;;;5.77;5.27;;;;;;;12.03;65.48;95445.16;6120344;23;20273;-86
2024/03/19 22:41:29;;;;;;;6.17;4.90;;;;;;;12.06;65.26;95431.88;6118903;23;20207;-85
2024/03/19 22:47:50;;;;;;;5.40;4.90;;;;;;;12.05;65.89;95460.44;5924728;23;20278;-85
2024/03/19 22:53:48;;;;;;;5.40;4.80;;;;;;;12.09;65.53;95454.72;6206738;23;20255;-86
2024/03/19 22:56:46;;;;;;;5.20;4.60;;;;;;;12.10;65.57;95427.13;6204729;23;20173;-87
2024/03/19 23:02:31;;;;;;;5.30;4.70;;;;;;;12.02;65.40;95435.00;6182520;23;20201;-87
2024/03/19 23:08:23;;;;;;;5.30;4.80;;;;;;;12.06;65.45;95434.44;6153105;23;20260;-86
2024/03/19 23:11:33;;;;;;;5.40;4.70;;;;;;;12.04;65.85;95451.91;6178596;23;20197;-86
2024/03/19 23:23:03;;;;;;;5.00;4.50;;;;;;;11.72;66.83;95483.38;6173228;23;20170;-84
2024/03/19 23:25:30;;;;;;;5.77;4.90;;;;;;;11.72;66.73;95491.94;6179202;23;20336;-85
2024/03/19 23:27:58;;;;;;;5.20;4.50;;;;;;;11.71;66.86;95487.75;6178789;23;20176;-85
2024/03/19 23:30:24;;;;;;;5.60;5.00;;;;;;;11.64;67.09;95498.97;6177375;23;20174;-84
2024/03/19 23:32:51;;;;;;;6.47;4.83;;;;;;;11.63;66.73;95489.66;6178126;23;20185;-84
2024/03/19 23:35:17;;;;;;;5.47;4.97;;;;;;;11.60;67.19;95495.16;6177566;23;20717;-85
2024/03/19 23:37:44;;;;;;;4.93;4.43;;;;;;;11.66;66.93;95490.06;6178077;23;20194;-84
2024/03/19 23:40:12;;;;;;;6.60;5.90;;;;;;;11.62;67.31;95495.78;6177885;23;20178;-84
2024/03/19 23:42:38;;;;;;;5.50;5.00;;;;;;;11.61;67.13;95486.44;6177693;23;20194;-85
2024/03/19 23:45:07;;;;;;;7.00;4.90;;;;;;;11.57;67.26;95480.06;6177896;23;20181;-86
2024/03/19 23:47:34;;;;;;;5.40;4.90;;;;;;;11.52;67.25;95492.72;6178200;23;20769;-85
2024/03/19 23:50:18;;;;;;;4.63;4.10;;;;;;;11.46;67.57;95496.84;6179440;23;20517;-86
2024/03/19 23:53:01;;;;;;;6.67;4.37;;;;;;;11.41;67.33;95492.22;6178351;23;20254;-85
2024/03/19 23:55:38;;;;;;;5.13;4.63;;;;;;;11.42;67.20;95493.81;6179446;23;20250;-87
2024/03/19 23:58:10;;;;;;;4.27;3.87;;;;;;;11.45;67.32;95495.22;6179091;23;20812;-88
